createdAt,value
2018-06-25T00:01:39.057Z,90.50
2018-06-25T00:04:07.368Z,90.60
2018-06-25T00:06:35.706Z,90.40
2018-06-25T00:09:04.028Z,90.40
2018-06-25T00:11:32.361Z,90.70
2018-06-25T00:14:00.703Z,90.70
2018-06-25T00:16:29.025Z,90.60
2018-06-25T00:18:57.365Z,90.70
2018-06-25T00:21:25.677Z,90.60
2018-06-25T00:23:54.023Z,90.50
2018-06-25T00:26:21.568Z,90.50
2018-06-25T00:28:49.902Z,90.40
2018-06-25T00:31:18.219Z,90.20
2018-06-25T00:33:46.551Z,90.30
2018-06-25T00:36:14.868Z,90.30
2018-06-25T00:38:43.204Z,90.50
2018-06-25T00:41:11.518Z,90.60
2018-06-25T00:43:39.858Z,90.60
2018-06-25T00:46:08.180Z,90.50
2018-06-25T00:48:36.522Z,90.70
2018-06-25T00:51:04.833Z,90.70
2018-06-25T00:53:33.175Z,90.60
2018-06-25T00:56:01.487Z,90.50
2018-06-25T00:58:29.832Z,90.70
2018-06-25T01:00:58.146Z,90.70
2018-06-25T01:03:26.485Z,90.70
2018-06-25T01:05:54.852Z,90.80
2018-06-25T01:08:23.144Z,90.90
2018-06-25T01:10:51.461Z,90.80
2018-06-25T01:13:19.791Z,90.60
2018-06-25T01:15:48.105Z,90.50
2018-06-25T01:18:16.446Z,90.50
2018-06-25T01:20:44.758Z,90.40
2018-06-25T01:23:13.096Z,90.70
2018-06-25T01:25:41.413Z,90.90
2018-06-25T01:28:09.744Z,90.70
2018-06-25T01:30:38.057Z,90.30
2018-06-25T01:33:06.395Z,90.20
2018-06-25T01:35:34.728Z,90.30
2018-06-25T01:38:03.068Z,90.20
2018-06-25T01:40:31.381Z,90.10
2018-06-25T01:42:59.718Z,90.00
2018-06-25T01:45:28.054Z,89.80
2018-06-25T01:47:56.406Z,89.70
2018-06-25T01:50:24.730Z,90.00
2018-06-25T01:52:53.076Z,90.20
2018-06-25T01:55:21.406Z,90.50
2018-06-25T01:57:49.748Z,90.70
2018-06-25T02:00:18.060Z,90.70
2018-06-25T02:02:46.383Z,90.80
2018-06-25T02:05:14.722Z,90.80
2018-06-25T02:07:43.042Z,91.20
2018-06-25T02:10:11.374Z,90.80
2018-06-25T02:12:39.700Z,90.70
2018-06-25T02:15:08.037Z,90.80
2018-06-25T02:17:36.352Z,90.70
2018-06-25T02:20:04.687Z,90.90
2018-06-25T02:22:32.997Z,91.40
2018-06-25T02:25:01.340Z,91.00
2018-06-25T02:27:29.656Z,91.00
2018-06-25T02:29:58.002Z,91.00
2018-06-25T02:32:26.322Z,91.10
2018-06-25T02:34:54.661Z,91.00
2018-06-25T02:37:22.981Z,91.00
2018-06-25T02:39:51.319Z,91.00
2018-06-25T02:42:19.631Z,91.00
2018-06-25T02:44:47.974Z,91.00
2018-06-25T02:47:16.303Z,91.10
2018-06-25T02:49:44.650Z,91.10
2018-06-25T02:52:12.969Z,91.00
2018-06-25T02:54:41.310Z,90.80
2018-06-25T02:57:09.630Z,90.60
2018-06-25T02:59:37.969Z,90.70
2018-06-25T03:02:06.290Z,90.70
2018-06-25T03:04:34.648Z,90.80
2018-06-25T03:07:02.965Z,90.70
2018-06-25T03:09:31.312Z,90.60
2018-06-25T03:11:59.635Z,90.60
2018-06-25T03:14:27.980Z,90.50
2018-06-25T03:16:56.299Z,90.50
2018-06-25T03:19:24.637Z,90.50
2018-06-25T03:21:52.954Z,90.50
2018-06-25T03:24:21.312Z,90.40
2018-06-25T03:26:49.633Z,90.50
2018-06-25T03:29:17.971Z,90.60
2018-06-25T03:31:46.309Z,91.00
2018-06-25T03:34:14.646Z,90.50
2018-06-25T03:36:42.960Z,90.60
2018-06-25T03:39:11.302Z,90.70
2018-06-25T03:41:39.626Z,90.70
2018-06-25T03:44:07.960Z,91.00
2018-06-25T03:46:36.286Z,91.00
2018-06-25T03:49:04.637Z,91.00
2018-06-25T03:51:32.956Z,91.20
2018-06-25T03:54:01.306Z,91.30
2018-06-25T03:56:29.616Z,91.40
2018-06-25T03:58:57.928Z,91.50
2018-06-25T04:01:26.264Z,91.40
2018-06-25T04:03:54.612Z,91.40
2018-06-25T04:06:22.950Z,91.50
2018-06-25T04:08:51.274Z,91.60
2018-06-25T04:11:18.850Z,91.60
2018-06-25T04:13:47.168Z,91.60
2018-06-25T04:16:15.521Z,91.70
2018-06-25T04:18:43.845Z,91.80
2018-06-25T04:21:12.189Z,91.90
2018-06-25T04:23:40.596Z,91.90
2018-06-25T04:26:08.875Z,92.00
2018-06-25T04:28:37.197Z,91.80
2018-06-25T04:31:05.540Z,91.80
2018-06-25T04:33:33.876Z,91.90
2018-06-25T04:36:02.217Z,91.60
2018-06-25T04:38:30.540Z,91.70
2018-06-25T04:40:58.880Z,91.70
2018-06-25T04:43:27.205Z,91.70
2018-06-25T04:45:55.538Z,91.70
2018-06-25T04:48:23.858Z,91.80
2018-06-25T04:50:52.218Z,92.00
2018-06-25T04:53:20.534Z,92.00
2018-06-25T04:55:48.901Z,92.40
2018-06-25T04:58:17.218Z,92.10
2018-06-25T05:00:45.661Z,92.20
2018-06-25T05:03:14.185Z,92.40
2018-06-25T05:05:41.830Z,92.40
2018-06-25T05:08:11.193Z,92.30
2018-06-25T05:10:39.620Z,92.30
2018-06-25T05:13:07.946Z,92.40
2018-06-25T05:15:36.286Z,92.40
2018-06-25T05:18:04.608Z,92.40
2018-06-25T05:20:32.948Z,92.30
2018-06-25T05:23:01.276Z,92.10
2018-06-25T05:25:29.616Z,91.80
2018-06-25T05:27:57.940Z,91.90
2018-06-25T05:30:26.285Z,91.90
2018-06-25T05:32:54.607Z,91.70
2018-06-25T05:35:22.950Z,91.30
2018-06-25T05:37:51.276Z,90.90
2018-06-25T05:40:19.610Z,90.50
2018-06-25T05:42:47.921Z,90.20
2018-06-25T05:45:16.284Z,90.30
2018-06-25T05:47:44.604Z,90.30
2018-06-25T05:50:12.946Z,89.90
2018-06-25T05:52:41.264Z,88.90
2018-06-25T05:55:09.614Z,87.90
2018-06-25T05:57:37.935Z,87.00
2018-06-25T06:00:06.245Z,86.80
2018-06-25T06:02:34.593Z,86.00
2018-06-25T06:05:02.934Z,86.10
2018-06-25T06:07:31.269Z,86.30
2018-06-25T06:09:59.589Z,86.20
2018-06-25T06:12:27.925Z,86.20
2018-06-25T06:14:56.242Z,86.10
2018-06-25T06:17:24.649Z,86.30
2018-06-25T06:19:52.916Z,86.30
2018-06-25T06:22:21.261Z,85.80
2018-06-25T06:24:49.588Z,85.00
2018-06-25T06:27:17.931Z,84.70
2018-06-25T06:29:46.241Z,84.70
2018-06-25T06:32:14.589Z,83.90
2018-06-25T06:34:42.897Z,84.40
2018-06-25T06:37:11.235Z,84.50
2018-06-25T06:39:39.555Z,84.70
2018-06-25T06:42:07.889Z,84.50
2018-06-25T06:44:36.210Z,84.30
2018-06-25T06:47:04.560Z,84.30
2018-06-25T06:49:32.886Z,84.60
2018-06-25T06:52:01.226Z,84.10
2018-06-25T06:54:29.552Z,83.50
2018-06-25T06:56:57.952Z,83.80
2018-06-25T06:59:26.266Z,84.10
2018-06-25T07:01:54.607Z,83.40
2018-06-25T07:04:22.919Z,82.70
2018-06-25T07:06:51.263Z,83.30
2018-06-25T07:09:19.577Z,83.50
2018-06-25T07:11:47.915Z,83.40
2018-06-25T07:14:16.233Z,83.60
2018-06-25T07:16:44.565Z,83.90
2018-06-25T07:19:12.882Z,84.10
2018-06-25T07:21:41.489Z,83.80
2018-06-25T07:24:09.804Z,83.80
2018-06-25T07:26:38.146Z,84.10
2018-06-25T07:29:06.521Z,84.50
2018-06-25T07:31:34.860Z,85.00
2018-06-25T07:34:03.184Z,85.60
2018-06-25T07:36:31.530Z,85.60
2018-06-25T07:38:59.849Z,85.00
2018-06-25T07:41:28.188Z,83.40
2018-06-25T07:43:56.514Z,82.70
2018-06-25T07:46:24.870Z,82.20
2018-06-25T07:48:53.187Z,83.10
2018-06-25T07:51:21.528Z,83.10
2018-06-25T07:53:49.855Z,82.70
2018-06-25T07:56:18.211Z,82.40
2018-06-25T07:58:46.542Z,82.00
2018-06-25T08:01:14.861Z,80.80
2018-06-25T08:03:43.269Z,80.20
2018-06-25T08:06:11.548Z,79.80
2018-06-25T08:08:39.886Z,80.00
2018-06-25T08:11:08.235Z,80.00
2018-06-25T08:13:36.578Z,80.20
2018-06-25T08:16:04.913Z,79.60
2018-06-25T08:18:33.253Z,79.00
2018-06-25T08:21:01.577Z,78.60
2018-06-25T08:23:29.928Z,78.40
2018-06-25T08:25:58.264Z,78.70
2018-06-25T08:28:26.618Z,78.00
2018-06-25T08:30:54.944Z,77.30
2018-06-25T08:33:23.281Z,76.60
2018-06-25T08:35:51.601Z,75.50
2018-06-25T08:38:19.947Z,73.30
2018-06-25T08:40:48.265Z,74.40
2018-06-25T08:43:16.610Z,75.90
2018-06-25T08:45:44.996Z,76.20
2018-06-25T08:48:13.320Z,76.00
2018-06-25T08:50:41.646Z,75.00
2018-06-25T08:53:10.002Z,73.80
2018-06-25T08:55:38.324Z,74.50
2018-06-25T08:58:06.654Z,74.40
2018-06-25T09:00:34.971Z,73.10
2018-06-25T09:03:03.383Z,72.30
2018-06-25T09:05:31.671Z,71.10
2018-06-25T09:08:00.009Z,70.30
2018-06-25T09:10:28.339Z,68.70
2018-06-25T09:12:56.684Z,68.80
2018-06-25T09:15:25.074Z,69.80
2018-06-25T09:17:53.368Z,70.50
2018-06-25T09:20:21.700Z,71.20
2018-06-25T09:22:50.042Z,69.90
2018-06-25T09:25:18.363Z,69.20
2018-06-25T09:27:46.783Z,69.30
2018-06-25T09:30:15.049Z,69.10
2018-06-25T09:32:43.396Z,69.10
2018-06-25T09:35:11.739Z,69.30
2018-06-25T09:37:40.105Z,69.70
2018-06-25T09:40:08.440Z,70.10
2018-06-25T09:42:36.787Z,70.10
2018-06-25T09:45:05.115Z,69.60
2018-06-25T09:47:33.459Z,68.40
2018-06-25T09:50:01.780Z,68.10
2018-06-25T09:52:30.136Z,68.00
2018-06-25T09:54:58.472Z,67.20
2018-06-25T09:57:26.849Z,66.70
2018-06-25T09:59:55.178Z,66.40
2018-06-25T10:02:23.518Z,66.90
2018-06-25T10:04:51.862Z,66.90
2018-06-25T10:07:19.416Z,66.90
2018-06-25T10:09:46.996Z,68.60
2018-06-25T10:12:15.313Z,67.90
2018-06-25T10:14:43.680Z,68.00
2018-06-25T10:17:12.003Z,68.40
2018-06-25T10:19:40.361Z,67.40
2018-06-25T10:22:08.688Z,67.60
2018-06-25T10:24:37.036Z,67.40
2018-06-25T10:27:05.352Z,67.00
2018-06-25T10:29:33.703Z,66.50
2018-06-25T10:32:02.027Z,66.20
2018-06-25T10:34:30.377Z,65.80
2018-06-25T10:36:58.695Z,65.20
2018-06-25T10:39:27.039Z,65.00
2018-06-25T10:41:55.358Z,65.00
2018-06-25T10:44:23.692Z,64.70
2018-06-25T10:46:52.041Z,63.80
2018-06-25T10:49:20.379Z,64.10
2018-06-25T10:51:48.709Z,64.00
2018-06-25T10:54:17.061Z,63.80
2018-06-25T10:56:45.393Z,64.00
2018-06-25T10:59:13.743Z,64.10
2018-06-25T11:01:42.067Z,63.70
2018-06-25T11:04:10.433Z,63.10
2018-06-25T11:06:38.757Z,62.70
2018-06-25T11:09:07.098Z,61.60
2018-06-25T11:11:35.429Z,60.60
2018-06-25T11:14:03.774Z,59.50
2018-06-25T11:16:32.094Z,59.00
2018-06-25T11:19:00.445Z,57.90
2018-06-25T11:21:28.003Z,57.90
2018-06-25T11:23:56.349Z,57.50
2018-06-25T11:26:24.679Z,57.10
2018-06-25T11:28:53.021Z,57.70
2018-06-25T11:31:20.605Z,57.70
2018-06-25T11:33:48.957Z,58.40
2018-06-25T11:36:17.293Z,57.80
2018-06-25T11:38:45.642Z,58.30
2018-06-25T11:41:13.977Z,58.80
2018-06-25T11:43:42.331Z,59.10
2018-06-25T11:46:10.669Z,59.20
2018-06-25T11:48:39.009Z,58.90
2018-06-25T11:51:07.340Z,58.40
2018-06-25T11:53:35.685Z,58.30
2018-06-25T11:56:04.005Z,57.30
2018-06-25T11:58:32.334Z,57.60
2018-06-25T12:01:00.669Z,58.00
2018-06-25T12:03:29.074Z,58.40
2018-06-25T12:05:57.354Z,58.60
2018-06-25T12:08:25.670Z,58.10
2018-06-25T12:10:54.011Z,57.70
2018-06-25T12:13:22.327Z,57.20
2018-06-25T12:15:50.678Z,55.40
2018-06-25T12:18:19.011Z,55.40
2018-06-25T12:20:47.359Z,55.20
2018-06-25T12:23:15.691Z,55.00
2018-06-25T12:25:44.052Z,54.60
2018-06-25T12:28:12.371Z,54.20
2018-06-25T12:30:40.713Z,53.00
2018-06-25T12:33:09.037Z,53.30
2018-06-25T12:35:37.395Z,53.50
2018-06-25T12:38:05.714Z,54.10
2018-06-25T12:40:34.062Z,54.70
2018-06-25T12:43:02.425Z,55.60
2018-06-25T12:45:30.813Z,56.20
2018-06-25T12:47:59.104Z,56.10
2018-06-25T12:50:27.445Z,56.40
2018-06-25T12:52:55.767Z,56.80
2018-06-25T12:55:24.109Z,57.30
2018-06-25T12:57:52.425Z,57.50
2018-06-25T13:00:20.765Z,56.90
2018-06-25T13:02:49.097Z,56.10
2018-06-25T13:05:17.442Z,55.70
2018-06-25T13:07:45.765Z,55.30
2018-06-25T13:10:14.109Z,54.40
2018-06-25T13:12:42.433Z,54.50
2018-06-25T13:15:10.781Z,54.50
2018-06-25T13:17:39.109Z,53.70
2018-06-25T13:20:07.447Z,53.60
2018-06-25T13:22:35.761Z,53.60
2018-06-25T13:25:04.111Z,53.30
2018-06-25T13:27:32.438Z,53.80
2018-06-25T13:30:00.795Z,53.40
2018-06-25T13:32:29.112Z,53.10
2018-06-25T13:34:57.449Z,52.90
2018-06-25T13:37:25.771Z,53.20
2018-06-25T13:39:54.108Z,52.70
2018-06-25T13:42:22.438Z,53.30
2018-06-25T13:44:50.777Z,53.60
2018-06-25T13:47:19.101Z,52.90
2018-06-25T13:49:47.502Z,52.50
2018-06-25T13:52:15.877Z,52.50
2018-06-25T13:54:44.264Z,52.40
2018-06-25T13:57:12.553Z,51.40
2018-06-25T13:59:40.906Z,51.10
2018-06-25T14:02:09.239Z,50.50
2018-06-25T14:04:37.555Z,50.30
2018-06-25T14:07:05.903Z,49.90
2018-06-25T14:09:34.235Z,49.00
2018-06-25T14:12:02.575Z,47.80
2018-06-25T14:14:30.893Z,48.10
2018-06-25T14:16:59.303Z,48.10
2018-06-25T14:19:27.593Z,48.00
2018-06-25T14:21:55.928Z,47.30
2018-06-25T14:24:24.253Z,47.90
2018-06-25T14:26:52.593Z,47.20
2018-06-25T14:29:20.919Z,45.60
2018-06-25T14:31:49.276Z,46.10
2018-06-25T14:34:17.609Z,46.10
2018-06-25T14:36:45.959Z,46.90
2018-06-25T14:39:14.286Z,46.70
2018-06-25T14:41:42.626Z,47.30
2018-06-25T14:44:10.963Z,48.70
2018-06-25T14:46:39.332Z,49.80
2018-06-25T14:49:07.651Z,50.20
2018-06-25T14:51:35.992Z,50.30
2018-06-25T14:54:04.312Z,51.00
2018-06-25T14:56:32.667Z,50.70
2018-06-25T14:59:00.992Z,51.00
2018-06-25T15:01:29.347Z,49.10
2018-06-25T15:03:57.693Z,49.20
2018-06-25T15:06:25.275Z,49.20
2018-06-25T15:08:53.600Z,51.20
2018-06-25T15:11:21.933Z,51.40
2018-06-25T15:13:50.246Z,51.90
2018-06-25T15:16:18.604Z,52.40
2018-06-25T15:18:46.925Z,52.00
2018-06-25T15:21:15.275Z,52.30
2018-06-25T15:23:43.589Z,52.10
2018-06-25T15:26:11.933Z,52.10
2018-06-25T15:28:40.256Z,51.40
2018-06-25T15:31:08.593Z,51.50
2018-06-25T15:33:36.919Z,51.60
2018-06-25T15:36:05.273Z,51.20
2018-06-25T15:38:33.591Z,50.50
2018-06-25T15:41:01.936Z,49.80
2018-06-25T15:43:30.277Z,49.40
2018-06-25T15:45:58.631Z,48.30
2018-06-25T15:48:26.951Z,47.40
2018-06-25T15:50:55.298Z,46.60
2018-06-25T15:53:23.614Z,46.10
2018-06-25T15:55:51.980Z,45.60
2018-06-25T15:58:20.294Z,46.30
2018-06-25T16:00:48.626Z,46.60
2018-06-25T16:03:16.968Z,47.50
2018-06-25T16:05:45.280Z,47.10
2018-06-25T16:08:13.622Z,47.20
2018-06-25T16:10:41.947Z,46.30
2018-06-25T16:13:10.299Z,46.30
2018-06-25T16:15:38.628Z,45.50
2018-06-25T16:18:06.974Z,44.40
2018-06-25T16:20:35.281Z,44.90
2018-06-25T16:23:03.628Z,44.40
2018-06-25T16:25:31.941Z,43.50
2018-06-25T16:28:00.293Z,44.50
2018-06-25T16:30:28.608Z,44.40
2018-06-25T16:32:56.957Z,44.80
2018-06-25T16:35:25.278Z,44.90
2018-06-25T16:37:53.614Z,46.00
2018-06-25T16:40:21.939Z,46.00
2018-06-25T16:42:50.277Z,46.10
2018-06-25T16:45:18.601Z,46.00
2018-06-25T16:47:46.995Z,45.90
2018-06-25T16:50:15.369Z,45.50
2018-06-25T16:52:43.784Z,45.70
2018-06-25T16:55:15.448Z,46.10
2018-06-25T16:57:43.825Z,46.60
2018-06-25T17:00:12.149Z,46.70
2018-06-25T17:02:40.497Z,47.30
2018-06-25T17:05:08.818Z,47.10
2018-06-25T17:07:37.152Z,46.70
2018-06-25T17:10:05.485Z,46.30
2018-06-25T17:12:33.840Z,44.80
2018-06-25T17:15:02.162Z,44.10
2018-06-25T17:17:30.501Z,43.80
2018-06-25T17:19:58.826Z,44.90
2018-06-25T17:22:27.162Z,46.10
2018-06-25T17:24:55.472Z,46.40
2018-06-25T17:27:23.856Z,46.60
2018-06-25T17:29:52.174Z,47.30
2018-06-25T17:32:20.520Z,46.20
2018-06-25T17:34:48.833Z,45.70
2018-06-25T17:37:17.178Z,46.30
2018-06-25T17:39:45.483Z,46.30
2018-06-25T17:42:13.828Z,44.40
2018-06-25T17:44:42.146Z,42.30
2018-06-25T17:47:10.483Z,40.60
2018-06-25T17:49:38.800Z,39.70
2018-06-25T17:52:07.146Z,40.60
2018-06-25T17:54:35.494Z,43.00
2018-06-25T17:57:03.909Z,45.00
2018-06-25T17:59:32.303Z,46.20
2018-06-25T18:02:00.722Z,46.00
2018-06-25T18:04:29.062Z,45.80
2018-06-25T18:06:57.377Z,46.50
2018-06-25T18:09:25.722Z,47.80
2018-06-25T18:11:54.041Z,48.90
2018-06-25T18:14:22.370Z,49.20
2018-06-25T18:16:50.699Z,48.60
2018-06-25T18:19:19.044Z,47.60
2018-06-25T18:21:47.364Z,45.40
2018-06-25T18:24:15.699Z,43.10
2018-06-25T18:26:44.011Z,41.60
2018-06-25T18:29:12.351Z,40.80
2018-06-25T18:31:40.682Z,39.60
2018-06-25T18:34:09.022Z,38.40
2018-06-25T18:36:37.336Z,38.40
2018-06-25T18:39:05.673Z,40.10
2018-06-25T18:41:33.994Z,42.10
2018-06-25T18:44:02.321Z,43.90
2018-06-25T18:46:30.635Z,45.80
2018-06-25T18:48:58.973Z,47.70
2018-06-25T18:51:27.291Z,49.10
2018-06-25T18:53:55.638Z,50.20
2018-06-25T18:56:23.957Z,51.40
2018-06-25T18:58:52.294Z,52.30
2018-06-25T19:01:20.614Z,53.10
2018-06-25T19:03:48.955Z,54.00
2018-06-25T19:06:17.273Z,54.90
2018-06-25T19:08:45.614Z,55.80
2018-06-25T19:11:13.938Z,56.50
2018-06-25T19:13:42.281Z,57.30
2018-06-25T19:16:10.597Z,57.70
2018-06-25T19:18:38.935Z,58.20
2018-06-25T19:21:07.243Z,58.90
2018-06-25T19:23:35.640Z,59.70
2018-06-25T19:26:03.918Z,60.70
2018-06-25T19:28:32.258Z,61.70
2018-06-25T19:31:00.581Z,62.50
2018-06-25T19:33:28.938Z,63.30
2018-06-25T19:35:58.530Z,63.30
2018-06-25T19:38:26.856Z,64.50
2018-06-25T19:40:55.174Z,65.30
2018-06-25T19:43:23.516Z,66.10
2018-06-25T19:45:51.835Z,67.70
2018-06-25T19:48:20.187Z,67.70
2018-06-25T19:50:47.749Z,67.70
2018-06-25T19:53:16.098Z,69.30
2018-06-25T19:55:44.415Z,69.90
2018-06-25T19:58:12.791Z,70.40
2018-06-25T20:00:41.117Z,71.20
2018-06-25T20:03:09.437Z,72.10
2018-06-25T20:05:37.806Z,73.10
2018-06-25T20:08:06.136Z,74.00
2018-06-25T20:10:34.483Z,74.30
2018-06-25T20:13:02.805Z,74.80
2018-06-25T20:15:31.185Z,75.40
2018-06-25T20:17:59.500Z,75.90
2018-06-25T20:20:27.837Z,76.30
2018-06-25T20:22:56.161Z,76.60
2018-06-25T20:25:24.514Z,76.80
2018-06-25T20:27:52.833Z,77.30
2018-06-25T20:30:20.410Z,77.30
2018-06-25T20:32:48.747Z,77.70
2018-06-25T20:35:17.135Z,78.30
2018-06-25T20:37:45.466Z,79.00
2018-06-25T20:40:13.826Z,79.60
2018-06-25T20:42:42.208Z,80.00
2018-06-25T20:45:10.555Z,80.40
2018-06-25T20:47:38.883Z,81.10
2018-06-25T20:50:07.230Z,82.10
2018-06-25T20:52:35.541Z,81.70
2018-06-25T20:55:03.875Z,82.00
2018-06-25T20:57:32.197Z,82.50
2018-06-25T21:00:00.553Z,82.70
2018-06-25T21:02:28.877Z,82.90
2018-06-25T21:04:57.229Z,83.30
2018-06-25T21:07:25.550Z,83.50
2018-06-25T21:09:53.897Z,83.80
2018-06-25T21:12:22.225Z,83.70
2018-06-25T21:14:50.570Z,83.80
2018-06-25T21:17:18.903Z,84.00
2018-06-25T21:19:47.236Z,84.20
2018-06-25T21:22:15.553Z,84.20
2018-06-25T21:24:43.886Z,84.60
2018-06-25T21:27:12.211Z,84.60
2018-06-25T21:29:40.543Z,85.10
2018-06-25T21:32:08.853Z,85.20
2018-06-25T21:34:36.441Z,85.20
2018-06-25T21:37:04.767Z,85.50
2018-06-25T21:39:33.195Z,85.60
2018-06-25T21:42:01.531Z,85.70
2018-06-25T21:44:29.865Z,86.30
2018-06-25T21:46:58.182Z,86.40
2018-06-25T21:49:26.522Z,86.30
2018-06-25T21:51:54.837Z,86.30
2018-06-25T21:54:23.173Z,86.50
2018-06-25T21:56:51.487Z,86.60
2018-06-25T21:59:19.822Z,86.80
2018-06-25T22:01:48.190Z,86.90
2018-06-25T22:04:16.505Z,86.80
2018-06-25T22:06:44.843Z,86.80
2018-06-25T22:09:13.175Z,86.90
2018-06-25T22:11:41.517Z,86.70
2018-06-25T22:14:09.837Z,86.80
2018-06-25T22:16:38.173Z,86.90
2018-06-25T22:19:06.496Z,87.10
2018-06-25T22:21:34.841Z,87.20
2018-06-25T22:24:03.158Z,87.30
2018-06-25T22:26:31.506Z,87.40
2018-06-25T22:28:59.817Z,87.60
2018-06-25T22:31:28.185Z,87.70
2018-06-25T22:33:56.508Z,87.90
2018-06-25T22:36:24.855Z,88.00
2018-06-25T22:38:53.193Z,88.00
2018-06-25T22:41:21.530Z,87.80
2018-06-25T22:43:49.870Z,88.00
2018-06-25T22:46:18.292Z,88.40
2018-06-25T22:48:46.622Z,89.00
2018-06-25T22:51:14.974Z,88.90
2018-06-25T22:53:43.302Z,88.80
2018-06-25T22:56:11.646Z,89.00
2018-06-25T22:58:39.967Z,89.00
2018-06-25T23:01:07.553Z,88.90
2018-06-25T23:03:35.881Z,89.30
2018-06-25T23:06:04.235Z,89.70
2018-06-25T23:08:32.562Z,90.00
2018-06-25T23:11:00.903Z,90.00
2018-06-25T23:13:29.214Z,90.00
2018-06-25T23:15:57.556Z,90.00
2018-06-25T23:18:25.881Z,89.90
2018-06-25T23:20:54.227Z,89.80
2018-06-25T23:23:22.549Z,89.80
2018-06-25T23:25:50.909Z,89.60
2018-06-25T23:28:19.281Z,89.60
2018-06-25T23:30:47.635Z,89.70
2018-06-25T23:33:15.234Z,89.70
2018-06-25T23:35:43.575Z,90.00
2018-06-25T23:38:11.890Z,90.00
2018-06-25T23:40:39.459Z,90.00
2018-06-25T23:43:07.790Z,90.00
2018-06-25T23:45:36.129Z,90.00
2018-06-25T23:48:04.442Z,90.00
2018-06-25T23:50:32.783Z,89.90
2018-06-25T23:53:01.104Z,90.00
2018-06-25T23:55:29.450Z,90.10
2018-06-25T23:57:57.782Z,89.90
